sensor_id;sensor_type;location;lat;lon;timestamp;P1;durP1;ratioP1;P2;durP2;ratioP2
32242;SDS011;18731;42.830;24.390;2023-07-24T03:01:56;14.95;;;8.30;;
32242;SDS011;18731;42.830;24.390;2023-07-24T03:04:21;14.35;;;8.40;;
32242;SDS011;18731;42.830;24.390;2023-07-24T03:06:47;13.65;;;7.97;;
32242;SDS011;18731;42.830;24.390;2023-07-24T03:09:13;10.75;;;7.68;;
32242;SDS011;18731;42.830;24.390;2023-07-24T03:11:39;15.38;;;9.00;;
32242;SDS011;18731;42.830;24.390;2023-07-24T03:14:05;11.23;;;7.78;;
32242;SDS011;18731;42.830;24.390;2023-07-24T03:16:30;14.50;;;7.40;;
32242;SDS011;18731;42.830;24.390;2023-07-24T03:18:56;14.80;;;9.00;;
32242;SDS011;18731;42.830;24.390;2023-07-24T03:21:22;10.60;;;7.75;;
32242;SDS011;18731;42.830;24.390;2023-07-24T03:23:49;11.77;;;8.00;;
32242;SDS011;18731;42.830;24.390;2023-07-24T03:26:14;13.35;;;7.78;;
32242;SDS011;18731;42.830;24.390;2023-07-24T03:28:40;13.02;;;8.07;;
32242;SDS011;18731;42.830;24.390;2023-07-24T03:31:06;12.73;;;7.38;;
32242;SDS011;18731;42.830;24.390;2023-07-24T03:33:32;12.15;;;7.50;;
32242;SDS011;18731;42.830;24.390;2023-07-24T03:35:58;8.95;;;6.72;;
32242;SDS011;18731;42.830;24.390;2023-07-24T03:38:23;11.02;;;7.60;;
32242;SDS011;18731;42.830;24.390;2023-07-24T03:40:49;15.75;;;7.57;;
32242;SDS011;18731;42.830;24.390;2023-07-24T03:43:14;12.30;;;7.05;;
32242;SDS011;18731;42.830;24.390;2023-07-24T03:45:40;11.88;;;7.35;;
32242;SDS011;18731;42.830;24.390;2023-07-24T03:48:07;10.13;;;7.00;;
32242;SDS011;18731;42.830;24.390;2023-07-24T03:50:33;11.35;;;6.97;;
32242;SDS011;18731;42.830;24.390;2023-07-24T03:52:58;10.65;;;6.90;;
32242;SDS011;18731;42.830;24.390;2023-07-24T03:55:24;12.20;;;6.97;;
32242;SDS011;18731;42.830;24.390;2023-07-24T03:57:50;9.98;;;7.00;;
32242;SDS011;18731;42.830;24.390;2023-07-24T04:00:15;10.38;;;6.32;;
32242;SDS011;18731;42.830;24.390;2023-07-24T04:02:41;10.00;;;6.68;;
32242;SDS011;18731;42.830;24.390;2023-07-24T04:05:07;10.15;;;6.93;;
32242;SDS011;18731;42.830;24.390;2023-07-24T04:07:33;10.90;;;6.97;;
32242;SDS011;18731;42.830;24.390;2023-07-24T04:09:58;10.05;;;6.88;;
32242;SDS011;18731;42.830;24.390;2023-07-24T04:12:24;10.65;;;7.05;;
32242;SDS011;18731;42.830;24.390;2023-07-24T04:14:50;8.10;;;6.43;;
32242;SDS011;18731;42.830;24.390;2023-07-24T04:17:15;10.55;;;7.50;;
32242;SDS011;18731;42.830;24.390;2023-07-24T04:19:41;11.52;;;7.13;;
32242;SDS011;18731;42.830;24.390;2023-07-24T04:22:07;12.30;;;6.75;;
32242;SDS011;18731;42.830;24.390;2023-07-24T04:24:32;11.65;;;7.32;;
32242;SDS011;18731;42.830;24.390;2023-07-24T04:26:58;10.80;;;7.10;;
32242;SDS011;18731;42.830;24.390;2023-07-24T04:29:23;12.23;;;8.23;;
32242;SDS011;18731;42.830;24.390;2023-07-24T04:31:51;18.55;;;13.18;;
32242;SDS011;18731;42.830;24.390;2023-07-24T04:34:17;19.25;;;14.25;;
32242;SDS011;18731;42.830;24.390;2023-07-24T04:36:43;24.77;;;16.00;;
32242;SDS011;18731;42.830;24.390;2023-07-24T04:39:08;14.68;;;9.43;;
32242;SDS011;18731;42.830;24.390;2023-07-24T04:41:34;13.15;;;8.20;;
32242;SDS011;18731;42.830;24.390;2023-07-24T04:44:00;10.80;;;7.32;;
32242;SDS011;18731;42.830;24.390;2023-07-24T04:46:25;9.25;;;6.63;;
32242;SDS011;18731;42.830;24.390;2023-07-24T04:48:51;8.32;;;6.65;;
32242;SDS011;18731;42.830;24.390;2023-07-24T04:51:16;9.98;;;6.57;;
32242;SDS011;18731;42.830;24.390;2023-07-24T04:53:44;8.73;;;6.30;;
32242;SDS011;18731;42.830;24.390;2023-07-24T04:56:10;9.48;;;6.45;;
32242;SDS011;18731;42.830;24.390;2023-07-24T04:58:35;12.43;;;7.55;;
32242;SDS011;18731;42.830;24.390;2023-07-24T05:01:04;9.05;;;6.68;;
32242;SDS011;18731;42.830;24.390;2023-07-24T05:03:31;11.18;;;7.10;;
32242;SDS011;18731;42.830;24.390;2023-07-24T05:05:57;9.70;;;6.47;;
32242;SDS011;18731;42.830;24.390;2023-07-24T05:08:22;9.18;;;6.25;;
32242;SDS011;18731;42.830;24.390;2023-07-24T05:10:57;9.45;;;6.60;;
32242;SDS011;18731;42.830;24.390;2023-07-24T05:13:24;8.88;;;6.25;;
32242;SDS011;18731;42.830;24.390;2023-07-24T05:15:50;13.18;;;6.43;;
32242;SDS011;18731;42.830;24.390;2023-07-24T05:18:15;8.55;;;6.18;;
32242;SDS011;18731;42.830;24.390;2023-07-24T05:20:44;8.27;;;5.82;;
32242;SDS011;18731;42.830;24.390;2023-07-24T05:23:16;8.88;;;6.50;;
32242;SDS011;18731;42.830;24.390;2023-07-24T05:25:42;9.30;;;5.97;;
32242;SDS011;18731;42.830;24.390;2023-07-24T05:28:08;8.68;;;5.82;;
32242;SDS011;18731;42.830;24.390;2023-07-24T05:30:34;8.63;;;5.95;;
32242;SDS011;18731;42.830;24.390;2023-07-24T05:32:59;8.30;;;5.55;;
32242;SDS011;18731;42.830;24.390;2023-07-24T05:35:25;9.45;;;5.88;;
32242;SDS011;18731;42.830;24.390;2023-07-24T05:37:51;10.60;;;6.28;;
32242;SDS011;18731;42.830;24.390;2023-07-24T05:40:16;9.65;;;6.00;;
32242;SDS011;18731;42.830;24.390;2023-07-24T05:42:42;7.55;;;6.10;;
32242;SDS011;18731;42.830;24.390;2023-07-24T05:45:09;7.88;;;5.45;;
32242;SDS011;18731;42.830;24.390;2023-07-24T05:47:36;9.52;;;5.93;;
32242;SDS011;18731;42.830;24.390;2023-07-24T05:50:02;7.22;;;5.22;;
32242;SDS011;18731;42.830;24.390;2023-07-24T05:52:28;8.00;;;4.93;;
32242;SDS011;18731;42.830;24.390;2023-07-24T05:54:54;7.45;;;5.30;;
32242;SDS011;18731;42.830;24.390;2023-07-24T05:57:20;9.95;;;5.47;;
32242;SDS011;18731;42.830;24.390;2023-07-24T05:59:45;7.40;;;5.43;;
32242;SDS011;18731;42.830;24.390;2023-07-24T06:02:11;7.28;;;5.78;;
32242;SDS011;18731;42.830;24.390;2023-07-24T06:04:36;7.28;;;5.30;;
32242;SDS011;18731;42.830;24.390;2023-07-24T06:07:02;7.38;;;5.40;;
32242;SDS011;18731;42.830;24.390;2023-07-24T06:09:28;8.38;;;5.20;;
32242;SDS011;18731;42.830;24.390;2023-07-24T06:11:53;7.95;;;4.95;;
32242;SDS011;18731;42.830;24.390;2023-07-24T06:14:19;7.47;;;5.57;;
32242;SDS011;18731;42.830;24.390;2023-07-24T06:16:44;7.72;;;5.13;;
32242;SDS011;18731;42.830;24.390;2023-07-24T06:19:10;6.32;;;5.03;;
32242;SDS011;18731;42.830;24.390;2023-07-24T06:21:36;7.65;;;5.35;;
32242;SDS011;18731;42.830;24.390;2023-07-24T06:24:01;8.23;;;5.53;;
32242;SDS011;18731;42.830;24.390;2023-07-24T06:26:27;8.93;;;6.00;;
32242;SDS011;18731;42.830;24.390;2023-07-24T06:28:53;8.95;;;5.57;;
32242;SDS011;18731;42.830;24.390;2023-07-24T06:31:18;7.65;;;5.30;;
32242;SDS011;18731;42.830;24.390;2023-07-24T06:33:44;10.20;;;5.32;;
32242;SDS011;18731;42.830;24.390;2023-07-24T06:36:10;9.68;;;5.35;;
32242;SDS011;18731;42.830;24.390;2023-07-24T06:38:36;6.97;;;5.53;;
32242;SDS011;18731;42.830;24.390;2023-07-24T06:41:01;9.00;;;5.85;;
32242;SDS011;18731;42.830;24.390;2023-07-24T06:43:28;8.90;;;6.00;;
32242;SDS011;18731;42.830;24.390;2023-07-24T06:45:54;9.00;;;5.53;;
32242;SDS011;18731;42.830;24.390;2023-07-24T06:48:19;7.93;;;5.60;;
32242;SDS011;18731;42.830;24.390;2023-07-24T06:50:45;7.38;;;5.43;;
32242;SDS011;18731;42.830;24.390;2023-07-24T06:53:11;8.45;;;5.57;;
32242;SDS011;18731;42.830;24.390;2023-07-24T06:55:36;9.73;;;5.75;;
32242;SDS011;18731;42.830;24.390;2023-07-24T06:58:02;8.07;;;5.97;;
32242;SDS011;18731;42.830;24.390;2023-07-24T07:00:28;7.85;;;5.70;;
32242;SDS011;18731;42.830;24.390;2023-07-24T07:02:54;8.93;;;5.50;;
32242;SDS011;18731;42.830;24.390;2023-07-24T07:05:19;11.15;;;5.53;;
32242;SDS011;18731;42.830;24.390;2023-07-24T07:07:45;9.02;;;5.63;;
32242;SDS011;18731;42.830;24.390;2023-07-24T07:10:10;9.43;;;6.25;;
32242;SDS011;18731;42.830;24.390;2023-07-24T07:12:36;9.75;;;5.68;;
32242;SDS011;18731;42.830;24.390;2023-07-24T07:15:02;7.97;;;5.60;;
32242;SDS011;18731;42.830;24.390;2023-07-24T07:17:27;6.90;;;5.43;;
32242;SDS011;18731;42.830;24.390;2023-07-24T07:19:53;7.70;;;5.82;;
32242;SDS011;18731;42.830;24.390;2023-07-24T07:22:21;6.78;;;5.20;;
32242;SDS011;18731;42.830;24.390;2023-07-24T07:24:47;7.32;;;5.55;;
32242;SDS011;18731;42.830;24.390;2023-07-24T07:27:13;7.78;;;5.63;;
32242;SDS011;18731;42.830;24.390;2023-07-24T07:29:42;7.78;;;6.03;;
32242;SDS011;18731;42.830;24.390;2023-07-24T07:32:09;13.18;;;6.35;;
32242;SDS011;18731;42.830;24.390;2023-07-24T07:34:34;7.50;;;5.63;;
32242;SDS011;18731;42.830;24.390;2023-07-24T07:37:01;6.60;;;5.55;;
32242;SDS011;18731;42.830;24.390;2023-07-24T07:39:26;9.77;;;5.90;;
32242;SDS011;18731;42.830;24.390;2023-07-24T07:41:52;7.72;;;5.82;;
32242;SDS011;18731;42.830;24.390;2023-07-24T07:44:18;8.77;;;6.30;;
32242;SDS011;18731;42.830;24.390;2023-07-24T07:46:43;6.93;;;5.55;;
32242;SDS011;18731;42.830;24.390;2023-07-24T07:49:09;8.93;;;6.13;;
32242;SDS011;18731;42.830;24.390;2023-07-24T07:51:34;8.40;;;6.05;;
32242;SDS011;18731;42.830;24.390;2023-07-24T07:54:00;8.82;;;5.82;;
32242;SDS011;18731;42.830;24.390;2023-07-24T07:56:26;8.23;;;5.50;;
32242;SDS011;18731;42.830;24.390;2023-07-24T07:58:51;9.27;;;5.95;;
32242;SDS011;18731;42.830;24.390;2023-07-24T08:01:17;7.45;;;5.82;;
32242;SDS011;18731;42.830;24.390;2023-07-24T08:03:42;7.45;;;5.68;;
32242;SDS011;18731;42.830;24.390;2023-07-24T08:06:08;9.88;;;6.07;;
32242;SDS011;18731;42.830;24.390;2023-07-24T08:08:33;8.32;;;6.30;;
32242;SDS011;18731;42.830;24.390;2023-07-24T08:11:03;7.80;;;6.10;;
32242;SDS011;18731;42.830;24.390;2023-07-24T08:13:32;8.30;;;6.68;;
32242;SDS011;18731;42.830;24.390;2023-07-24T08:15:58;8.95;;;6.85;;
32242;SDS011;18731;42.830;24.390;2023-07-24T08:18:27;8.07;;;6.00;;
32242;SDS011;18731;42.830;24.390;2023-07-24T08:20:53;7.53;;;6.38;;
32242;SDS011;18731;42.830;24.390;2023-07-24T08:23:18;8.82;;;6.13;;
32242;SDS011;18731;42.830;24.390;2023-07-24T08:25:51;8.57;;;6.40;;
32242;SDS011;18731;42.830;24.390;2023-07-24T08:28:20;8.43;;;5.88;;
32242;SDS011;18731;42.830;24.390;2023-07-24T08:30:46;6.93;;;5.85;;
32242;SDS011;18731;42.830;24.390;2023-07-24T08:33:14;8.73;;;6.63;;
32242;SDS011;18731;42.830;24.390;2023-07-24T08:35:39;12.80;;;6.05;;
32242;SDS011;18731;42.830;24.390;2023-07-24T08:38:05;7.28;;;5.72;;
32242;SDS011;18731;42.830;24.390;2023-07-24T08:40:31;11.85;;;5.90;;
32242;SDS011;18731;42.830;24.390;2023-07-24T08:42:56;8.02;;;6.03;;
32242;SDS011;18731;42.830;24.390;2023-07-24T08:45:22;8.57;;;6.63;;
32242;SDS011;18731;42.830;24.390;2023-07-24T08:47:49;13.27;;;6.90;;
32242;SDS011;18731;42.830;24.390;2023-07-24T08:50:16;9.02;;;6.72;;
32242;SDS011;18731;42.830;24.390;2023-07-24T08:52:42;8.32;;;6.63;;
32242;SDS011;18731;42.830;24.390;2023-07-24T08:55:10;9.90;;;6.78;;
32242;SDS011;18731;42.830;24.390;2023-07-24T08:57:36;9.38;;;6.50;;
32242;SDS011;18731;42.830;24.390;2023-07-24T09:00:04;9.05;;;6.88;;
32242;SDS011;18731;42.830;24.390;2023-07-24T09:02:31;11.57;;;7.97;;
32242;SDS011;18731;42.830;24.390;2023-07-24T09:05:01;11.98;;;8.73;;
32242;SDS011;18731;42.830;24.390;2023-07-24T09:07:27;13.20;;;8.55;;
32242;SDS011;18731;42.830;24.390;2023-07-24T09:09:54;10.43;;;8.05;;
32242;SDS011;18731;42.830;24.390;2023-07-24T09:12:21;11.63;;;8.68;;
32242;SDS011;18731;42.830;24.390;2023-07-24T09:14:47;13.15;;;9.10;;
32242;SDS011;18731;42.830;24.390;2023-07-24T09:17:13;11.95;;;8.75;;
32242;SDS011;18731;42.830;24.390;2023-07-24T09:19:39;14.60;;;9.48;;
32242;SDS011;18731;42.830;24.390;2023-07-24T09:22:12;13.30;;;9.35;;
32242;SDS011;18731;42.830;24.390;2023-07-24T09:24:51;11.70;;;8.60;;
32242;SDS011;18731;42.830;24.390;2023-07-24T09:27:17;13.27;;;9.63;;
32242;SDS011;18731;42.830;24.390;2023-07-24T09:29:43;13.32;;;9.18;;
32242;SDS011;18731;42.830;24.390;2023-07-24T09:32:21;16.50;;;9.80;;
32242;SDS011;18731;42.830;24.390;2023-07-24T09:34:49;12.20;;;9.35;;
32242;SDS011;18731;42.830;24.390;2023-07-24T09:37:24;13.80;;;10.25;;
32242;SDS011;18731;42.830;24.390;2023-07-24T09:39:51;15.98;;;10.07;;
32242;SDS011;18731;42.830;24.390;2023-07-24T09:42:17;13.57;;;10.25;;
32242;SDS011;18731;42.830;24.390;2023-07-24T09:44:43;14.32;;;10.75;;
32242;SDS011;18731;42.830;24.390;2023-07-24T09:47:08;16.60;;;10.55;;
32242;SDS011;18731;42.830;24.390;2023-07-24T09:49:34;14.52;;;10.18;;
32242;SDS011;18731;42.830;24.390;2023-07-24T09:52:00;13.85;;;10.43;;
32242;SDS011;18731;42.830;24.390;2023-07-24T09:54:32;14.70;;;10.52;;
32242;SDS011;18731;42.830;24.390;2023-07-24T09:57:10;15.43;;;11.27;;
32242;SDS011;18731;42.830;24.390;2023-07-24T09:59:38;16.42;;;11.07;;
32242;SDS011;18731;42.830;24.390;2023-07-24T10:02:05;16.13;;;11.23;;
32242;SDS011;18731;42.830;24.390;2023-07-24T10:04:34;14.48;;;10.95;;
32242;SDS011;18731;42.830;24.390;2023-07-24T10:07:00;16.13;;;11.18;;
32242;SDS011;18731;42.830;24.390;2023-07-24T10:09:26;13.98;;;10.52;;
32242;SDS011;18731;42.830;24.390;2023-07-24T10:11:52;14.20;;;10.75;;
32242;SDS011;18731;42.830;24.390;2023-07-24T10:14:18;14.35;;;11.35;;
32242;SDS011;18731;42.830;24.390;2023-07-24T10:16:44;17.38;;;11.05;;
32242;SDS011;18731;42.830;24.390;2023-07-24T10:19:14;16.10;;;11.45;;
32242;SDS011;18731;42.830;24.390;2023-07-24T10:21:50;15.20;;;10.90;;
32242;SDS011;18731;42.830;24.390;2023-07-24T10:24:16;18.35;;;11.35;;
32242;SDS011;18731;42.830;24.390;2023-07-24T10:26:43;16.42;;;11.63;;
32242;SDS011;18731;42.830;24.390;2023-07-24T10:29:09;15.85;;;11.18;;
32242;SDS011;18731;42.830;24.390;2023-07-24T10:31:35;16.58;;;11.40;;
32242;SDS011;18731;42.830;24.390;2023-07-24T10:34:07;17.02;;;11.80;;
32242;SDS011;18731;42.830;24.390;2023-07-24T10:36:33;16.73;;;11.15;;
32242;SDS011;18731;42.830;24.390;2023-07-24T10:39:00;16.40;;;11.45;;
32242;SDS011;18731;42.830;24.390;2023-07-24T10:41:36;15.13;;;11.43;;
32242;SDS011;18731;42.830;24.390;2023-07-24T10:44:02;15.48;;;10.55;;
32242;SDS011;18731;42.830;24.390;2023-07-24T10:47:02;16.27;;;11.63;;
32242;SDS011;18731;42.830;24.390;2023-07-24T10:49:22;15.63;;;11.10;;
32242;SDS011;18731;42.830;24.390;2023-07-24T10:51:54;15.73;;;11.43;;
32242;SDS011;18731;42.830;24.390;2023-07-24T10:54:21;14.93;;;11.27;;
32242;SDS011;18731;42.830;24.390;2023-07-24T10:56:47;15.38;;;10.80;;
32242;SDS011;18731;42.830;24.390;2023-07-24T10:59:12;16.50;;;11.75;;
32242;SDS011;18731;42.830;24.390;2023-07-24T11:01:40;16.08;;;11.80;;
32242;SDS011;18731;42.830;24.390;2023-07-24T11:04:06;16.50;;;11.85;;
32242;SDS011;18731;42.830;24.390;2023-07-24T11:06:32;20.85;;;11.63;;
32242;SDS011;18731;42.830;24.390;2023-07-24T11:08:59;19.15;;;12.63;;
32242;SDS011;18731;42.830;24.390;2023-07-24T11:11:31;17.40;;;11.93;;
32242;SDS011;18731;42.830;24.390;2023-07-24T11:13:59;19.30;;;12.00;;
32242;SDS011;18731;42.830;24.390;2023-07-24T11:16:27;20.20;;;12.90;;
32242;SDS011;18731;42.830;24.390;2023-07-24T11:18:52;18.73;;;12.63;;
32242;SDS011;18731;42.830;24.390;2023-07-24T11:21:19;17.85;;;11.57;;
32242;SDS011;18731;42.830;24.390;2023-07-24T11:23:48;15.20;;;12.13;;
32242;SDS011;18731;42.830;24.390;2023-07-24T11:26:15;20.52;;;12.10;;
32242;SDS011;18731;42.830;24.390;2023-07-24T11:28:43;19.35;;;12.32;;
32242;SDS011;18731;42.830;24.390;2023-07-24T11:31:09;18.77;;;12.20;;
32242;SDS011;18731;42.830;24.390;2023-07-24T11:33:34;19.20;;;12.50;;
32242;SDS011;18731;42.830;24.390;2023-07-24T11:36:01;17.65;;;12.65;;
32242;SDS011;18731;42.830;24.390;2023-07-24T11:38:27;17.85;;;12.93;;
32242;SDS011;18731;42.830;24.390;2023-07-24T11:40:53;17.20;;;12.27;;
32242;SDS011;18731;42.830;24.390;2023-07-24T11:43:22;19.98;;;12.77;;
32242;SDS011;18731;42.830;24.390;2023-07-24T11:45:49;19.83;;;13.38;;
32242;SDS011;18731;42.830;24.390;2023-07-24T11:48:17;19.92;;;13.50;;
32242;SDS011;18731;42.830;24.390;2023-07-24T11:50:44;18.13;;;12.95;;
32242;SDS011;18731;42.830;24.390;2023-07-24T11:53:27;19.38;;;13.23;;
32242;SDS011;18731;42.830;24.390;2023-07-24T11:55:55;17.67;;;12.88;;
32242;SDS011;18731;42.830;24.390;2023-07-24T11:58:22;18.02;;;13.20;;
32242;SDS011;18731;42.830;24.390;2023-07-24T12:00:50;18.58;;;12.73;;
32242;SDS011;18731;42.830;24.390;2023-07-24T12:03:26;17.83;;;13.38;;
32242;SDS011;18731;42.830;24.390;2023-07-24T12:05:53;17.70;;;13.30;;
32242;SDS011;18731;42.830;24.390;2023-07-24T12:08:20;24.13;;;13.50;;
32242;SDS011;18731;42.830;24.390;2023-07-24T12:10:54;22.05;;;14.45;;
32242;SDS011;18731;42.830;24.390;2023-07-24T12:13:20;21.10;;;13.40;;
32242;SDS011;18731;42.830;24.390;2023-07-24T12:15:46;17.15;;;12.98;;
32242;SDS011;18731;42.830;24.390;2023-07-24T12:18:13;20.40;;;13.90;;
32242;SDS011;18731;42.830;24.390;2023-07-24T12:20:38;19.52;;;13.02;;
32242;SDS011;18731;42.830;24.390;2023-07-24T12:23:05;21.67;;;13.57;;
32242;SDS011;18731;42.830;24.390;2023-07-24T12:25:30;20.45;;;13.55;;
32242;SDS011;18731;42.830;24.390;2023-07-24T12:27:56;23.20;;;13.60;;
32242;SDS011;18731;42.830;24.390;2023-07-24T12:30:22;20.20;;;13.25;;
32242;SDS011;18731;42.830;24.390;2023-07-24T12:32:47;19.10;;;13.35;;
32242;SDS011;18731;42.830;24.390;2023-07-24T12:35:15;19.00;;;13.15;;
32242;SDS011;18731;42.830;24.390;2023-07-24T12:37:42;23.15;;;14.45;;
32242;SDS011;18731;42.830;24.390;2023-07-24T12:40:08;20.25;;;13.20;;
32242;SDS011;18731;42.830;24.390;2023-07-24T12:42:34;21.38;;;13.00;;
32242;SDS011;18731;42.830;24.390;2023-07-24T12:45:00;24.65;;;13.43;;
32242;SDS011;18731;42.830;24.390;2023-07-24T12:47:30;21.05;;;12.77;;
32242;SDS011;18731;42.830;24.390;2023-07-24T12:49:56;22.30;;;13.90;;
32242;SDS011;18731;42.830;24.390;2023-07-24T12:52:24;23.33;;;13.93;;
32242;SDS011;18731;42.830;24.390;2023-07-24T12:54:52;22.40;;;13.50;;
32242;SDS011;18731;42.830;24.390;2023-07-24T12:57:18;21.48;;;13.45;;
32242;SDS011;18731;42.830;24.390;2023-07-24T12:59:44;24.20;;;13.35;;
32242;SDS011;18731;42.830;24.390;2023-07-24T13:02:10;20.77;;;13.43;;
32242;SDS011;18731;42.830;24.390;2023-07-24T13:04:35;20.27;;;11.75;;
32242;SDS011;18731;42.830;24.390;2023-07-24T13:07:01;19.25;;;11.90;;
32242;SDS011;18731;42.830;24.390;2023-07-24T13:09:27;17.50;;;11.98;;
32242;SDS011;18731;42.830;24.390;2023-07-24T13:11:53;20.13;;;11.35;;
32242;SDS011;18731;42.830;24.390;2023-07-24T13:14:19;18.98;;;11.43;;
32242;SDS011;18731;42.830;24.390;2023-07-24T13:16:46;18.55;;;12.00;;
32242;SDS011;18731;42.830;24.390;2023-07-24T13:19:12;19.73;;;11.68;;
32242;SDS011;18731;42.830;24.390;2023-07-24T13:21:37;21.75;;;13.18;;
32242;SDS011;18731;42.830;24.390;2023-07-24T13:24:05;20.90;;;12.52;;
32242;SDS011;18731;42.830;24.390;2023-07-24T13:26:31;19.70;;;11.88;;
32242;SDS011;18731;42.830;24.390;2023-07-24T13:28:57;20.60;;;12.02;;
32242;SDS011;18731;42.830;24.390;2023-07-24T13:31:22;22.90;;;11.80;;
32242;SDS011;18731;42.830;24.390;2023-07-24T13:33:48;15.73;;;10.43;;
32242;SDS011;18731;42.830;24.390;2023-07-24T13:36:14;19.92;;;11.50;;
32242;SDS011;18731;42.830;24.390;2023-07-24T13:38:40;17.60;;;10.95;;
32242;SDS011;18731;42.830;24.390;2023-07-24T13:41:06;19.33;;;12.10;;
32242;SDS011;18731;42.830;24.390;2023-07-24T13:43:33;18.83;;;11.60;;
32242;SDS011;18731;42.830;24.390;2023-07-24T13:45:59;20.95;;;11.80;;
32242;SDS011;18731;42.830;24.390;2023-07-24T13:48:28;17.65;;;11.20;;
32242;SDS011;18731;42.830;24.390;2023-07-24T13:50:54;21.65;;;11.93;;
32242;SDS011;18731;42.830;24.390;2023-07-24T13:53:20;18.05;;;11.18;;
32242;SDS011;18731;42.830;24.390;2023-07-24T13:55:46;17.95;;;11.63;;
32242;SDS011;18731;42.830;24.390;2023-07-24T13:58:12;22.58;;;11.52;;
32242;SDS011;18731;42.830;24.390;2023-07-24T14:00:37;22.00;;;11.68;;
32242;SDS011;18731;42.830;24.390;2023-07-24T14:03:03;17.35;;;11.70;;
32242;SDS011;18731;42.830;24.390;2023-07-24T14:05:29;20.05;;;11.65;;
32242;SDS011;18731;42.830;24.390;2023-07-24T14:07:54;19.25;;;10.82;;
32242;SDS011;18731;42.830;24.390;2023-07-24T14:10:20;21.98;;;11.55;;
32242;SDS011;18731;42.830;24.390;2023-07-24T14:12:46;16.48;;;11.43;;
32242;SDS011;18731;42.830;24.390;2023-07-24T14:15:11;20.55;;;11.57;;
32242;SDS011;18731;42.830;24.390;2023-07-24T14:17:37;17.13;;;11.05;;
32242;SDS011;18731;42.830;24.390;2023-07-24T14:20:03;15.98;;;11.00;;
32242;SDS011;18731;42.830;24.390;2023-07-24T14:22:29;19.70;;;11.00;;
32242;SDS011;18731;42.830;24.390;2023-07-24T14:24:54;20.67;;;10.98;;
32242;SDS011;18731;42.830;24.390;2023-07-24T14:27:20;19.85;;;11.48;;
32242;SDS011;18731;42.830;24.390;2023-07-24T14:29:45;18.17;;;10.65;;
32242;SDS011;18731;42.830;24.390;2023-07-24T14:32:11;17.20;;;10.88;;
32242;SDS011;18731;42.830;24.390;2023-07-24T14:34:36;16.35;;;10.80;;
32242;SDS011;18731;42.830;24.390;2023-07-24T14:37:02;16.67;;;10.57;;
32242;SDS011;18731;42.830;24.390;2023-07-24T14:39:28;19.45;;;10.18;;
32242;SDS011;18731;42.830;24.390;2023-07-24T14:41:54;18.40;;;10.13;;
32242;SDS011;18731;42.830;24.390;2023-07-24T14:44:19;16.30;;;10.18;;
32242;SDS011;18731;42.830;24.390;2023-07-24T14:46:45;21.52;;;10.23;;
32242;SDS011;18731;42.830;24.390;2023-07-24T14:49:10;15.25;;;9.90;;
32242;SDS011;18731;42.830;24.390;2023-07-24T14:51:36;15.82;;;10.15;;
32242;SDS011;18731;42.830;24.390;2023-07-24T14:54:02;17.15;;;10.73;;
32242;SDS011;18731;42.830;24.390;2023-07-24T14:56:28;17.70;;;10.82;;
32242;SDS011;18731;42.830;24.390;2023-07-24T14:58:53;14.82;;;10.02;;
32242;SDS011;18731;42.830;24.390;2023-07-24T15:01:19;15.57;;;10.05;;
32242;SDS011;18731;42.830;24.390;2023-07-24T15:03:44;16.77;;;10.57;;
32242;SDS011;18731;42.830;24.390;2023-07-24T15:06:10;20.23;;;10.43;;
32242;SDS011;18731;42.830;24.390;2023-07-24T15:08:36;16.85;;;10.05;;
32242;SDS011;18731;42.830;24.390;2023-07-24T15:11:01;14.90;;;9.63;;
32242;SDS011;18731;42.830;24.390;2023-07-24T15:13:27;14.82;;;10.43;;
32242;SDS011;18731;42.830;24.390;2023-07-24T15:15:53;17.08;;;9.77;;
32242;SDS011;18731;42.830;24.390;2023-07-24T15:18:18;15.20;;;9.90;;
32242;SDS011;18731;42.830;24.390;2023-07-24T15:20:44;13.00;;;9.88;;
32242;SDS011;18731;42.830;24.390;2023-07-24T15:23:10;20.85;;;9.93;;
32242;SDS011;18731;42.830;24.390;2023-07-24T15:25:36;17.83;;;10.50;;
32242;SDS011;18731;42.830;24.390;2023-07-24T15:28:02;16.55;;;10.38;;
32242;SDS011;18731;42.830;24.390;2023-07-24T15:30:27;16.40;;;9.95;;
32242;SDS011;18731;42.830;24.390;2023-07-24T15:32:53;15.57;;;10.13;;
32242;SDS011;18731;42.830;24.390;2023-07-24T15:35:19;19.17;;;10.20;;
32242;SDS011;18731;42.830;24.390;2023-07-24T15:37:44;20.38;;;10.20;;
32242;SDS011;18731;42.830;24.390;2023-07-24T15:40:10;19.10;;;10.63;;
32242;SDS011;18731;42.830;24.390;2023-07-24T15:42:37;14.90;;;10.35;;
32242;SDS011;18731;42.830;24.390;2023-07-24T15:45:02;18.02;;;10.85;;
32242;SDS011;18731;42.830;24.390;2023-07-24T15:47:29;16.55;;;10.48;;
32242;SDS011;18731;42.830;24.390;2023-07-24T15:49:54;14.60;;;10.48;;
32242;SDS011;18731;42.830;24.390;2023-07-24T15:52:20;16.95;;;9.88;;
32242;SDS011;18731;42.830;24.390;2023-07-24T15:54:46;20.67;;;10.07;;
32242;SDS011;18731;42.830;24.390;2023-07-24T15:57:11;15.88;;;9.88;;
32242;SDS011;18731;42.830;24.390;2023-07-24T15:59:37;15.73;;;10.10;;
32242;SDS011;18731;42.830;24.390;2023-07-24T16:02:03;17.73;;;10.25;;
32242;SDS011;18731;42.830;24.390;2023-07-24T16:04:29;17.90;;;10.57;;
32242;SDS011;18731;42.830;24.390;2023-07-24T16:06:55;17.42;;;9.88;;
32242;SDS011;18731;42.830;24.390;2023-07-24T16:09:20;17.90;;;10.10;;
32242;SDS011;18731;42.830;24.390;2023-07-24T16:11:48;14.23;;;9.75;;
32242;SDS011;18731;42.830;24.390;2023-07-24T16:14:14;18.10;;;10.45;;
32242;SDS011;18731;42.830;24.390;2023-07-24T16:16:40;19.60;;;9.93;;
32242;SDS011;18731;42.830;24.390;2023-07-24T16:19:15;21.55;;;10.27;;
32242;SDS011;18731;42.830;24.390;2023-07-24T16:21:47;16.05;;;10.85;;
32242;SDS011;18731;42.830;24.390;2023-07-24T16:24:14;19.92;;;11.10;;
32242;SDS011;18731;42.830;24.390;2023-07-24T16:26:46;17.90;;;10.30;;
32242;SDS011;18731;42.830;24.390;2023-07-24T16:29:12;20.40;;;11.50;;
32242;SDS011;18731;42.830;24.390;2023-07-24T16:31:38;17.77;;;10.65;;
32242;SDS011;18731;42.830;24.390;2023-07-24T16:34:04;18.20;;;11.10;;
32242;SDS011;18731;42.830;24.390;2023-07-24T16:36:30;16.13;;;10.68;;
32242;SDS011;18731;42.830;24.390;2023-07-24T16:38:58;21.83;;;11.60;;
32242;SDS011;18731;42.830;24.390;2023-07-24T16:41:23;16.13;;;10.73;;
32242;SDS011;18731;42.830;24.390;2023-07-24T16:43:49;16.17;;;10.65;;
32242;SDS011;18731;42.830;24.390;2023-07-24T16:46:15;17.52;;;10.30;;
32242;SDS011;18731;42.830;24.390;2023-07-24T16:48:40;18.88;;;10.25;;
32242;SDS011;18731;42.830;24.390;2023-07-24T16:51:06;17.00;;;11.00;;
32242;SDS011;18731;42.830;24.390;2023-07-24T16:53:33;17.05;;;10.77;;
32242;SDS011;18731;42.830;24.390;2023-07-24T16:55:58;21.17;;;11.57;;
32242;SDS011;18731;42.830;24.390;2023-07-24T16:58:24;17.33;;;10.98;;
32242;SDS011;18731;42.830;24.390;2023-07-24T17:00:49;19.75;;;11.30;;
32242;SDS011;18731;42.830;24.390;2023-07-24T17:03:15;17.30;;;10.80;;
32242;SDS011;18731;42.830;24.390;2023-07-24T17:05:41;21.35;;;11.02;;
32242;SDS011;18731;42.830;24.390;2023-07-24T17:08:06;19.60;;;11.50;;
32242;SDS011;18731;42.830;24.390;2023-07-24T17:10:41;19.23;;;11.00;;
32242;SDS011;18731;42.830;24.390;2023-07-24T17:13:09;20.52;;;11.15;;
32242;SDS011;18731;42.830;24.390;2023-07-24T17:15:35;20.38;;;11.63;;